createdAt,value
2022-10-05T00:00:58.975Z,100629.50
2022-10-05T00:06:00.391Z,100625.69
2022-10-05T00:11:02.162Z,100614.47
2022-10-05T00:16:20.964Z,100605.34
2022-10-05T00:21:27.004Z,100608.16
2022-10-05T00:26:33.087Z,100584.31
2022-10-05T00:31:36.114Z,100593.44
2022-10-05T00:36:39.069Z,100603.44
2022-10-05T00:41:55.176Z,100608.66
2022-10-05T00:47:27.824Z,100592.19
2022-10-05T00:52:39.988Z,100578.69
2022-10-05T00:57:47.209Z,100575.81
2022-10-05T01:02:56.629Z,100572.94
2022-10-05T01:08:35.951Z,100586.41
2022-10-05T01:13:58.319Z,100578.31
2022-10-05T01:19:19.188Z,100575.78
2022-10-05T01:24:39.077Z,100576.16
2022-10-05T01:30:10.090Z,100583.69
2022-10-05T01:35:48.034Z,100579.09
2022-10-05T01:41:09.730Z,100588.59
2022-10-05T01:46:25.412Z,100588.09
2022-10-05T01:51:48.125Z,100574.66
2022-10-05T01:57:06.908Z,100580.47
2022-10-05T02:02:14.017Z,100568.22
2022-10-05T02:07:23.144Z,100552.97
2022-10-05T02:12:29.685Z,100537.13
2022-10-05T02:17:38.638Z,100533.97
2022-10-05T02:22:47.911Z,100535.19
2022-10-05T02:27:57.622Z,100537.47
2022-10-05T02:33:08.231Z,100523.81
2022-10-05T02:38:17.237Z,100525.09
2022-10-05T02:43:40.005Z,100509.38
2022-10-05T02:49:03.614Z,100512.28
2022-10-05T02:54:32.630Z,100516.75
2022-10-05T02:59:33.957Z,100503.28
2022-10-05T03:04:45.968Z,100511.03
2022-10-05T03:10:09.464Z,100516.16
2022-10-05T03:15:35.289Z,100525.00
2022-10-05T03:20:46.822Z,100527.16
2022-10-05T03:25:57.626Z,100521.47
2022-10-05T03:31:13.001Z,100527.41
2022-10-05T03:36:24.352Z,100528.25
2022-10-05T03:41:35.495Z,100533.09
2022-10-05T03:47:03.101Z,100537.56
2022-10-05T03:52:29.242Z,100543.75
2022-10-05T03:57:36.157Z,100543.47
2022-10-05T04:02:48.481Z,100538.63
2022-10-05T04:08:29.262Z,100535.84
2022-10-05T04:13:38.349Z,100530.75
2022-10-05T04:19:02.210Z,100527.72
2022-10-05T04:24:11.849Z,100535.22
2022-10-05T04:29:40.637Z,100508.81
2022-10-05T04:34:56.932Z,100533.63
2022-10-05T04:40:16.975Z,100538.63
2022-10-05T04:45:36.392Z,100552.19
2022-10-05T04:50:50.490Z,100555.34
2022-10-05T04:55:52.171Z,100560.00
2022-10-05T05:01:01.143Z,100555.66
2022-10-05T05:06:28.677Z,100556.97
2022-10-05T05:11:35.984Z,100554.56
2022-10-05T05:16:43.585Z,100559.53
2022-10-05T05:21:51.208Z,100560.63
2022-10-05T05:27:02.416Z,100564.50
2022-10-05T05:32:22.109Z,100569.72
2022-10-05T05:37:34.064Z,100577.19
2022-10-05T05:42:45.108Z,100577.34
2022-10-05T05:47:53.720Z,100585.56
2022-10-05T05:53:01.240Z,100586.19
2022-10-05T05:58:21.878Z,100591.28
2022-10-05T06:03:30.979Z,100577.56
2022-10-05T06:08:41.132Z,100585.19
2022-10-05T06:13:43.533Z,100582.78
2022-10-05T06:18:51.434Z,100587.84
2022-10-05T06:24:12.547Z,100591.16
2022-10-05T06:29:21.955Z,100585.56
2022-10-05T06:34:54.393Z,100590.91
2022-10-05T06:40:07.914Z,100587.75
2022-10-05T06:45:21.483Z,100583.50
2022-10-05T06:50:25.869Z,100589.53
2022-10-05T06:55:57.885Z,100584.47
2022-10-05T07:01:11.911Z,100595.09
2022-10-05T07:06:37.374Z,100594.53
2022-10-05T07:12:05.554Z,100594.88
2022-10-05T07:17:35.743Z,100606.53
2022-10-05T07:22:54.963Z,100605.06
2022-10-05T07:28:05.373Z,100606.97
2022-10-05T07:33:13.687Z,100607.03
2022-10-05T07:38:27.157Z,100600.63
2022-10-05T07:44:01.635Z,100602.56
2022-10-05T07:49:27.309Z,100599.38
2022-10-05T07:54:45.104Z,100593.31
2022-10-05T08:00:06.190Z,100590.88
2022-10-05T08:05:22.164Z,100603.09
2022-10-05T08:10:36.982Z,100606.63
2022-10-05T08:15:44.688Z,100596.53
2022-10-05T08:20:57.859Z,100611.91
2022-10-05T08:26:11.325Z,100597.81
2022-10-05T08:31:33.910Z,100594.19
2022-10-05T08:37:07.036Z,100586.78
2022-10-05T08:42:37.094Z,100590.00
2022-10-05T08:48:14.953Z,100589.25
2022-10-05T08:53:48.873Z,100590.63
2022-10-05T08:59:25.837Z,100581.03
2022-10-05T09:04:30.140Z,100590.34
2022-10-05T09:10:00.796Z,100582.16
2022-10-05T09:15:42.326Z,100577.03
2022-10-05T09:21:08.456Z,100584.94
2022-10-05T09:26:53.393Z,100585.00
2022-10-05T09:32:16.465Z,100585.34
2022-10-05T09:37:22.625Z,100587.06
2022-10-05T09:42:43.324Z,100570.53
2022-10-05T09:48:04.373Z,100575.78
2022-10-05T09:53:23.087Z,100568.72
2022-10-05T09:58:48.159Z,100565.88
2022-10-05T10:04:15.585Z,100567.59
2022-10-05T10:10:07.840Z,100559.09
2022-10-05T10:15:39.113Z,100543.28
2022-10-05T10:20:43.396Z,100537.81
2022-10-05T10:26:16.094Z,100539.47
2022-10-05T10:31:35.596Z,100551.19
2022-10-05T10:36:37.651Z,100547.13
2022-10-05T10:42:06.810Z,100550.19
2022-10-05T10:47:50.335Z,100551.56
2022-10-05T10:52:59.747Z,100541.03
2022-10-05T10:58:26.111Z,100539.50
2022-10-05T11:03:59.115Z,100529.81
2022-10-05T11:09:13.494Z,100506.75
2022-10-05T11:14:42.838Z,100501.00
2022-10-05T11:20:23.993Z,100487.34
2022-10-05T11:25:57.404Z,100491.16
2022-10-05T11:31:13.202Z,100488.63
2022-10-05T11:36:23.580Z,100480.50
2022-10-05T11:41:53.844Z,100476.69
2022-10-05T11:47:11.901Z,100474.16
2022-10-05T11:52:23.140Z,100470.06
2022-10-05T11:57:48.553Z,100461.31
2022-10-05T12:03:05.001Z,100447.28
2022-10-05T12:08:12.569Z,100444.94
2022-10-05T12:13:48.037Z,100446.81
2022-10-05T12:19:19.471Z,100445.97
2022-10-05T12:24:31.472Z,100438.75
2022-10-05T12:29:50.672Z,100423.28
2022-10-05T12:35:36.223Z,100419.19
2022-10-05T12:40:51.550Z,100424.13
2022-10-05T12:46:17.865Z,100420.16
2022-10-05T12:51:22.287Z,100409.94
2022-10-05T12:57:14.312Z,100409.06
2022-10-05T13:02:30.370Z,100400.06
2022-10-05T13:07:50.491Z,100401.59
2022-10-05T13:13:05.696Z,100401.69
2022-10-05T13:18:31.994Z,100393.75
2022-10-05T13:23:57.693Z,100372.84
2022-10-05T13:29:17.607Z,100374.06
2022-10-05T13:34:36.992Z,100369.41
2022-10-05T13:40:16.673Z,100373.88
2022-10-05T13:45:24.957Z,100375.94
2022-10-05T13:50:32.682Z,100361.81
2022-10-05T13:55:59.482Z,100361.59
2022-10-05T14:01:43.005Z,100362.44
2022-10-05T14:06:45.467Z,100354.88
2022-10-05T14:11:50.463Z,100353.13
2022-10-05T14:16:53.406Z,100348.13
2022-10-05T14:22:12.949Z,100339.31
2022-10-05T14:27:22.687Z,100338.66
2022-10-05T14:32:27.714Z,100333.69
2022-10-05T14:37:43.120Z,100335.59
2022-10-05T14:42:47.331Z,100329.34
2022-10-05T14:48:01.601Z,100314.38
2022-10-05T14:53:02.868Z,100320.41
2022-10-05T14:58:23.693Z,100314.53
2022-10-05T15:03:43.124Z,100301.84
2022-10-05T15:09:03.167Z,100305.94
2022-10-05T15:14:19.853Z,100296.56
2022-10-05T15:19:28.426Z,100289.72
2022-10-05T15:24:52.384Z,100287.41
2022-10-05T15:30:23.215Z,100275.13
2022-10-05T15:35:36.909Z,100267.53
2022-10-05T15:40:58.741Z,100270.31
2022-10-05T15:46:10.404Z,100265.81
2022-10-05T15:51:50.767Z,100258.38
2022-10-05T15:56:59.200Z,100255.78
2022-10-05T16:02:07.070Z,100259.06
2022-10-05T16:07:35.192Z,100265.63
2022-10-05T16:12:51.450Z,100263.25
2022-10-05T16:18:34.092Z,100266.69
2022-10-05T16:23:50.809Z,100264.94
2022-10-05T16:29:02.140Z,100263.78
2022-10-05T16:34:20.617Z,100266.75
2022-10-05T16:39:44.880Z,100279.34
2022-10-05T16:45:07.406Z,100286.72
2022-10-05T16:50:19.869Z,100292.00
2022-10-05T16:55:34.754Z,100288.47
2022-10-05T17:01:07.860Z,100285.88
2022-10-05T17:06:36.944Z,100300.13
2022-10-05T17:11:47.223Z,100297.84
2022-10-05T17:17:20.557Z,100309.28
2022-10-05T17:22:46.346Z,100318.25
2022-10-05T17:28:11.653Z,100329.50
2022-10-05T17:33:14.216Z,100337.84
2022-10-05T17:38:21.731Z,100347.19
2022-10-05T17:43:26.526Z,100356.66
2022-10-05T17:48:48.948Z,100369.22
2022-10-05T17:54:08.764Z,100372.59
2022-10-05T17:59:12.076Z,100383.91
2022-10-05T18:04:13.316Z,100383.78
2022-10-05T18:09:17.477Z,100397.31
2022-10-05T18:14:24.573Z,100404.63
2022-10-05T18:19:32.351Z,100410.50
2022-10-05T18:24:45.433Z,100416.44
2022-10-05T18:30:06.188Z,100423.38
2022-10-05T18:35:19.927Z,100430.59
2022-10-05T18:40:38.163Z,100430.78
2022-10-05T18:46:19.142Z,100438.03
2022-10-05T18:51:29.375Z,100445.28
2022-10-05T18:56:50.895Z,100450.72
2022-10-05T19:02:26.098Z,100466.88
2022-10-05T19:08:01.104Z,100472.75
2022-10-05T19:13:41.893Z,100481.34
2022-10-05T19:19:09.466Z,100489.13
2022-10-05T19:24:27.754Z,100496.84
2022-10-05T19:29:38.006Z,100506.25
2022-10-05T19:35:13.876Z,100506.59
2022-10-05T19:40:24.312Z,100520.56
2022-10-05T19:45:27.898Z,100528.31
2022-10-05T19:50:33.480Z,100530.81
2022-10-05T19:55:41.812Z,100544.25
2022-10-05T20:00:45.682Z,100549.97
2022-10-05T20:05:47.969Z,100548.28
2022-10-05T20:11:09.978Z,100552.63
2022-10-05T20:16:45.440Z,100557.69
2022-10-05T20:21:59.776Z,100560.00
2022-10-05T20:27:02.345Z,100572.00
2022-10-05T20:32:08.710Z,100581.25
2022-10-05T20:37:11.566Z,100587.91
2022-10-05T20:42:12.915Z,100597.97
2022-10-05T20:47:14.503Z,100607.72
2022-10-05T20:52:15.768Z,100617.75
2022-10-05T20:57:17.095Z,100608.34
2022-10-05T21:02:19.457Z,100620.09
2022-10-05T21:07:21.599Z,100632.84
2022-10-05T21:12:22.912Z,100624.59
2022-10-05T21:17:24.193Z,100627.09
2022-10-05T21:22:25.653Z,100622.03
2022-10-05T21:27:26.964Z,100623.97
2022-10-05T21:32:28.266Z,100631.00
2022-10-05T21:37:29.544Z,100644.41
2022-10-05T21:42:31.193Z,100650.78
2022-10-05T21:47:33.506Z,100657.31
2022-10-05T21:52:35.668Z,100655.41
2022-10-05T21:57:38.049Z,100656.75
2022-10-05T22:02:39.526Z,100666.09
2022-10-05T22:07:40.894Z,100679.84
2022-10-05T22:12:42.580Z,100680.81
2022-10-05T22:17:46.003Z,100679.13
2022-10-05T22:22:47.621Z,100682.06
2022-10-05T22:27:49.653Z,100688.25
2022-10-05T22:32:50.993Z,100684.34
2022-10-05T22:37:52.343Z,100687.75
2022-10-05T22:42:53.633Z,100704.78
2022-10-05T22:47:54.932Z,100697.72
2022-10-05T22:52:56.251Z,100699.09
2022-10-05T22:57:57.577Z,100696.00
2022-10-05T23:03:00.990Z,100692.34
2022-10-05T23:08:02.673Z,100695.78
2022-10-05T23:13:04.881Z,100698.94
2022-10-05T23:18:06.217Z,100704.53
2022-10-05T23:23:07.539Z,100710.78
2022-10-05T23:28:08.889Z,100715.72
2022-10-05T23:33:10.282Z,100739.53
2022-10-05T23:38:11.571Z,100728.81
2022-10-05T23:43:13.025Z,100758.81
2022-10-05T23:48:14.596Z,100745.31
2022-10-05T23:53:17.422Z,100745.47
2022-10-05T23:58:20.007Z,100751.75
